createdAt,value
2018-04-07T11:53:35.776Z,4.97
2018-04-07T11:56:05.341Z,4.97
2018-04-07T11:58:33.741Z,4.50
2018-04-07T12:01:03.299Z,4.30
2018-04-07T12:03:33.073Z,4.50
2018-04-07T12:06:01.385Z,5.33
2018-04-07T12:08:31.203Z,4.57
2018-04-07T12:11:03.220Z,4.10
2018-04-07T12:13:36.589Z,4.50
2018-04-07T12:16:05.191Z,4.17
2018-04-07T12:18:33.508Z,4.17
2018-04-07T12:21:01.799Z,4.23
2018-04-07T12:23:30.273Z,5.17
2018-04-07T12:26:02.995Z,4.50
2018-04-07T12:28:31.270Z,4.90
2018-04-07T12:30:59.537Z,4.57
2018-04-07T12:33:28.221Z,4.53
2018-04-07T12:35:57.120Z,5.70
2018-04-07T12:38:54.122Z,5.07
2018-04-07T12:41:22.390Z,4.90
2018-04-07T12:43:50.728Z,5.30
2018-04-07T12:46:19.251Z,4.77
2018-04-07T12:48:52.016Z,6.13
2018-04-07T12:51:26.547Z,5.80
2018-04-07T12:54:02.345Z,6.33
2018-04-07T12:56:30.845Z,6.13
2018-04-07T12:58:59.132Z,6.13
2018-04-07T13:01:27.418Z,7.40
2018-04-07T13:03:58.259Z,7.07
2018-04-07T13:06:33.862Z,6.80
2018-04-07T13:09:08.419Z,6.27
2018-04-07T13:11:37.027Z,6.97
2018-04-07T13:14:05.828Z,5.90
2018-04-07T13:16:34.108Z,6.50
2018-04-07T13:19:06.366Z,7.00
2018-04-07T13:21:36.371Z,7.47
2018-04-07T13:24:19.795Z,7.00
2018-04-07T13:26:48.848Z,6.80
2018-04-07T13:29:17.436Z,6.70
2018-04-07T13:31:45.706Z,6.53
2018-04-07T13:34:14.022Z,7.17
2018-04-07T13:36:42.765Z,7.57
2018-04-07T13:39:11.293Z,7.50
2018-04-07T13:41:39.655Z,7.70
2018-04-07T13:44:08.699Z,7.47
2018-04-07T13:46:36.979Z,7.50
2018-04-07T13:49:10.812Z,6.97
2018-04-07T13:51:42.986Z,7.83
2018-04-07T13:54:11.267Z,6.93
2018-04-07T13:56:39.562Z,6.53
2018-04-07T13:59:07.837Z,7.03
2018-04-07T14:01:36.544Z,7.77
2018-04-07T14:04:08.579Z,7.60
2018-04-07T14:06:36.862Z,6.93
2018-04-07T14:09:06.782Z,8.00
2018-04-07T14:18:19.373Z,7.97
2018-04-07T14:20:48.596Z,7.97
2018-04-07T14:23:17.677Z,7.83
2018-04-07T14:26:08.487Z,8.20
2018-04-07T14:28:36.788Z,8.10
2018-04-07T14:31:05.360Z,9.03
2018-04-07T14:33:34.098Z,8.63
2018-04-07T14:36:02.384Z,8.57
2018-04-07T14:38:31.466Z,9.40
2018-04-07T14:41:02.154Z,8.03
2018-04-07T14:43:32.205Z,7.80
2018-04-07T14:46:00.522Z,8.67
2018-04-07T14:48:29.520Z,8.93
2018-04-07T14:50:59.888Z,8.20
2018-04-07T14:53:28.445Z,8.00
2018-04-07T14:55:56.741Z,8.77
2018-04-07T14:58:25.258Z,7.67
2018-04-07T15:00:54.045Z,8.27
2018-04-07T15:03:22.333Z,8.27
2018-04-07T15:05:50.628Z,7.03
2018-04-07T15:08:19.335Z,7.60
2018-04-07T15:10:49.355Z,8.03
2018-04-07T15:13:20.195Z,8.70
2018-04-07T15:15:50.461Z,8.90
2018-04-07T15:18:21.811Z,8.00
2018-04-07T15:20:50.115Z,8.50
2018-04-07T15:23:20.705Z,9.00
2018-04-07T15:25:49.614Z,9.30
2018-04-07T15:32:09.290Z,8.60
2018-04-07T15:34:44.236Z,8.13
2018-04-07T15:37:15.679Z,9.10
2018-04-07T15:39:44.765Z,7.87
2018-04-07T15:42:13.614Z,7.93
2018-04-07T15:44:42.539Z,9.53
2018-04-07T15:47:19.646Z,9.57
2018-04-07T15:49:47.936Z,9.13
2018-04-07T15:52:25.277Z,8.83
2018-04-07T15:54:56.218Z,8.90
2018-04-07T15:57:28.637Z,8.77
2018-04-07T16:00:13.521Z,9.13
2018-04-07T16:02:44.305Z,9.20
2018-04-07T16:05:20.298Z,9.50
2018-04-07T16:07:57.457Z,9.30
2018-04-07T16:10:30.616Z,8.87
2018-04-07T16:13:04.478Z,10.00
2018-04-07T16:15:35.206Z,8.63
2018-04-07T16:18:04.235Z,8.90
2018-04-07T16:20:32.564Z,9.20
2018-04-07T16:23:00.837Z,9.93
2018-04-07T16:25:37.153Z,9.23
2018-04-07T16:28:12.337Z,8.83
2018-04-07T16:30:45.357Z,9.97
2018-04-07T16:33:17.224Z,10.90
2018-04-07T16:35:45.666Z,9.80
2018-04-07T16:38:15.621Z,9.80
2018-04-07T16:40:46.203Z,9.83
2018-04-07T16:43:18.545Z,10.20
2018-04-07T16:45:53.781Z,9.17
2018-04-07T16:48:27.582Z,9.57
2018-04-07T16:50:56.395Z,9.90
2018-04-07T16:53:25.516Z,9.97
2018-04-07T16:55:54.910Z,10.80
2018-04-07T16:58:23.393Z,10.77
2018-04-07T17:01:32.116Z,9.93
2018-04-07T17:04:04.001Z,11.93
2018-04-07T17:06:36.855Z,11.90
2018-04-07T17:09:06.800Z,11.63
2018-04-07T17:11:36.540Z,13.20
2018-04-07T17:14:04.875Z,11.27
2018-04-07T17:16:34.267Z,11.83
2018-04-07T17:19:03.233Z,12.60
2018-04-07T17:21:33.135Z,16.83
2018-04-07T17:24:04.363Z,13.40
2018-04-07T17:26:34.679Z,13.53
2018-04-07T17:29:05.413Z,12.87
2018-04-07T17:31:37.658Z,13.07
2018-04-07T17:34:06.367Z,12.87
2018-04-07T17:36:34.648Z,14.17
2018-04-07T17:39:03.405Z,14.83
2018-04-07T17:41:32.095Z,14.47
2018-04-07T17:44:00.376Z,15.70
2018-04-07T17:46:50.635Z,16.47
2018-04-07T17:49:28.690Z,15.83
2018-04-07T17:51:57.359Z,15.03
2018-04-07T17:54:26.047Z,15.97
2018-04-07T17:56:54.937Z,16.47
2018-04-07T17:59:23.250Z,17.30
2018-04-07T18:02:02.098Z,17.60
2018-04-07T18:04:30.733Z,16.90
2018-04-07T18:07:02.852Z,16.70
2018-04-07T18:09:31.804Z,15.80
2018-04-07T18:12:00.265Z,15.83
2018-04-07T18:14:33.573Z,15.70
2018-04-07T18:17:03.552Z,17.37
2018-04-07T18:19:35.854Z,17.27
2018-04-07T18:22:04.157Z,17.57
2018-04-07T18:24:39.322Z,15.33
2018-04-07T18:27:08.976Z,15.50
2018-04-07T18:29:40.355Z,15.47
2018-04-07T18:32:10.918Z,16.13
2018-04-07T18:34:42.943Z,18.53
2018-04-07T18:37:11.235Z,17.33
2018-04-07T18:39:39.523Z,17.30
2018-04-07T18:42:13.301Z,17.30
2018-04-07T18:44:53.229Z,17.73
2018-04-07T18:47:43.593Z,19.83
2018-04-07T18:50:12.833Z,19.20
2018-04-07T18:52:42.841Z,19.20
2018-04-07T18:55:16.141Z,19.87
2018-04-07T18:57:45.444Z,19.03
2018-04-07T19:00:19.074Z,19.77
2018-04-07T19:06:10.550Z,19.20
2018-04-07T19:08:38.828Z,20.17
2018-04-07T19:11:08.265Z,19.00
2018-04-07T19:13:36.845Z,20.43
2018-04-07T19:16:05.159Z,19.50
2018-04-07T19:18:34.220Z,19.43
2018-04-07T19:21:02.503Z,18.57
2018-04-07T19:23:36.678Z,18.00
2018-04-07T19:26:07.114Z,17.63
2018-04-07T19:28:41.094Z,17.90
2018-04-07T19:31:16.273Z,16.57
2018-04-07T19:37:28.237Z,17.63
2018-04-07T19:40:02.265Z,16.90
2018-04-07T19:42:32.349Z,17.17
2018-04-07T19:45:02.059Z,19.03
2018-04-07T19:47:30.526Z,17.50
2018-04-07T19:50:22.109Z,18.63
2018-04-07T19:52:53.639Z,17.30
2018-04-07T19:55:21.926Z,16.57
2018-04-07T19:57:50.545Z,16.00
2018-04-07T20:00:19.133Z,16.27
2018-04-07T20:02:50.675Z,15.63
2018-04-07T20:05:21.665Z,15.80
2018-04-07T20:07:55.799Z,14.83
2018-04-07T20:10:33.584Z,15.23
2018-04-07T20:13:05.216Z,14.57
2018-04-07T20:15:40.691Z,15.07
2018-04-07T20:18:18.602Z,14.77
2018-04-07T20:20:47.808Z,13.80
2018-04-07T20:23:16.669Z,14.03
2018-04-07T20:25:47.156Z,14.27
2018-04-07T20:28:16.363Z,14.83
2018-04-07T20:30:45.789Z,14.60
2018-04-07T20:33:14.845Z,14.17
2018-04-07T20:35:47.143Z,14.83
2018-04-07T20:38:15.496Z,13.77
2018-04-07T20:40:50.148Z,13.63
2018-04-07T20:43:19.332Z,13.70
2018-04-07T20:45:47.626Z,13.30
2018-04-07T20:48:15.937Z,12.30
2018-04-07T20:54:47.324Z,12.97
2018-04-07T20:57:15.655Z,12.73
2018-04-07T20:59:46.852Z,12.00
2018-04-07T21:02:15.150Z,13.23
2018-04-07T21:04:43.550Z,15.30
2018-04-07T21:10:33.703Z,12.83
2018-04-07T21:13:02.338Z,12.83
2018-04-07T21:15:30.760Z,11.67
2018-04-07T21:18:04.747Z,12.87
2018-04-07T21:20:40.539Z,13.17
2018-04-07T21:23:12.782Z,13.53
2018-04-07T21:25:44.817Z,12.77
2018-04-07T21:28:14.232Z,12.73
2018-04-07T21:30:42.535Z,13.13
2018-04-07T21:33:15.265Z,13.60
2018-04-07T21:39:51.202Z,12.93
2018-04-07T21:42:26.411Z,12.83
2018-04-07T21:44:58.865Z,12.27
2018-04-07T21:47:32.234Z,12.50
2018-04-07T21:50:09.806Z,12.40
2018-04-07T21:53:00.555Z,12.43
2018-04-07T21:55:31.466Z,12.90
2018-04-07T21:58:02.340Z,12.93
2018-04-07T22:00:43.863Z,13.57
2018-04-07T22:03:17.911Z,13.57
2018-04-07T22:05:52.718Z,13.37
2018-04-07T22:08:43.963Z,12.80
2018-04-07T22:11:15.091Z,13.40
2018-04-07T22:13:52.923Z,13.43
2018-04-07T22:16:25.905Z,12.57
2018-04-07T22:19:11.483Z,12.07
2018-04-07T22:21:46.414Z,12.47
2018-04-07T22:24:15.208Z,12.90
2018-04-07T22:26:45.858Z,14.00
2018-04-07T22:29:21.291Z,14.40
2018-04-07T22:31:53.557Z,12.07
2018-04-07T22:37:07.064Z,11.13
2018-04-07T22:39:38.270Z,11.77
2018-04-07T22:42:19.195Z,11.63
2018-04-07T22:44:53.665Z,12.63
2018-04-07T22:47:27.336Z,12.20
2018-04-07T22:49:59.605Z,11.83
2018-04-07T22:52:34.852Z,12.43
2018-04-07T22:55:04.831Z,10.87
2018-04-07T22:57:33.125Z,11.87
2018-04-07T23:00:04.376Z,13.60
2018-04-07T23:02:33.685Z,12.40
2018-04-07T23:05:07.743Z,11.57
2018-04-07T23:07:37.509Z,11.53
2018-04-07T23:10:07.256Z,10.90
2018-04-07T23:12:39.855Z,11.83
2018-04-07T23:15:13.947Z,12.23
2018-04-07T23:17:46.257Z,11.80
2018-04-07T23:20:15.278Z,11.67
2018-04-07T23:22:47.814Z,12.90
2018-04-07T23:26:04.404Z,11.20
2018-04-07T23:28:34.629Z,11.47
2018-04-07T23:31:02.951Z,11.40
2018-04-07T23:33:33.835Z,11.77
2018-04-07T23:36:02.680Z,11.63
2018-04-07T23:38:32.473Z,11.60
2018-04-07T23:41:03.118Z,11.30
2018-04-07T23:43:32.926Z,11.27
2018-04-07T23:46:03.633Z,11.07
2018-04-07T23:48:34.603Z,11.07
2018-04-07T23:51:03.701Z,10.37
2018-04-07T23:53:35.528Z,11.00
2018-04-07T23:56:05.729Z,11.20
2018-04-07T23:58:40.111Z,10.97
